sensor_id;sensor_type;location;lat;lon;timestamp;temperature;humidity
67275;DHT22;55463;52.324;5.122;2023-01-04T00:01:03;9.07;97.10
67275;DHT22;55463;52.324;5.122;2023-01-04T00:03:29;9.05;97.12
67275;DHT22;55463;52.324;5.122;2023-01-04T00:06:01;9.04;97.28
67275;DHT22;55463;52.324;5.122;2023-01-04T00:08:27;9.04;97.37
67275;DHT22;55463;52.324;5.122;2023-01-04T00:10:52;9.03;97.48
67275;DHT22;55463;52.324;5.122;2023-01-04T00:13:18;9.00;97.52
67275;DHT22;55463;52.324;5.122;2023-01-04T00:15:43;9.04;97.66
67275;DHT22;55463;52.324;5.122;2023-01-04T00:18:08;8.99;97.66
67275;DHT22;55463;52.324;5.122;2023-01-04T00:20:34;9.04;97.75
67275;DHT22;55463;52.324;5.122;2023-01-04T00:22:59;9.04;97.64
67275;DHT22;55463;52.324;5.122;2023-01-04T00:25:25;9.03;97.84
67275;DHT22;55463;52.324;5.122;2023-01-04T00:27:51;9.07;97.76
67275;DHT22;55463;52.324;5.122;2023-01-04T00:30:17;9.07;97.83
67275;DHT22;55463;52.324;5.122;2023-01-04T00:32:44;9.08;97.83
67275;DHT22;55463;52.324;5.122;2023-01-04T00:35:10;9.10;97.91
67275;DHT22;55463;52.324;5.122;2023-01-04T00:37:35;9.08;97.97
67275;DHT22;55463;52.324;5.122;2023-01-04T00:40:01;9.11;98.01
67275;DHT22;55463;52.324;5.122;2023-01-04T00:42:26;9.11;98.08
67275;DHT22;55463;52.324;5.122;2023-01-04T00:44:52;9.08;98.19
67275;DHT22;55463;52.324;5.122;2023-01-04T00:47:17;9.07;98.33
67275;DHT22;55463;52.324;5.122;2023-01-04T00:49:43;9.10;98.20
67275;DHT22;55463;52.324;5.122;2023-01-04T00:52:08;9.11;98.36
67275;DHT22;55463;52.324;5.122;2023-01-04T00:54:34;9.11;98.40
67275;DHT22;55463;52.324;5.122;2023-01-04T00:56:59;9.12;98.52
67275;DHT22;55463;52.324;5.122;2023-01-04T00:59:25;9.11;98.58
67275;DHT22;55463;52.324;5.122;2023-01-04T01:01:51;9.12;98.56
67275;DHT22;55463;52.324;5.122;2023-01-04T01:04:18;9.12;98.64
67275;DHT22;55463;52.324;5.122;2023-01-04T01:06:44;9.14;98.58
67275;DHT22;55463;52.324;5.122;2023-01-04T01:09:10;9.17;98.64
67275;DHT22;55463;52.324;5.122;2023-01-04T01:11:37;9.18;98.77
67275;DHT22;55463;52.324;5.122;2023-01-04T01:14:04;9.21;98.81
67275;DHT22;55463;52.324;5.122;2023-01-04T01:16:29;9.18;98.79
67275;DHT22;55463;52.324;5.122;2023-01-04T01:18:55;9.21;98.93
67275;DHT22;55463;52.324;5.122;2023-01-04T01:21:23;9.22;99.06
67275;DHT22;55463;52.324;5.122;2023-01-04T01:23:49;9.22;99.12
67275;DHT22;55463;52.324;5.122;2023-01-04T01:26:17;9.24;99.15
67275;DHT22;55463;52.324;5.122;2023-01-04T01:28:43;9.22;99.26
67275;DHT22;55463;52.324;5.122;2023-01-04T01:31:22;9.25;99.38
67275;DHT22;55463;52.324;5.122;2023-01-04T01:33:50;9.24;99.44
67275;DHT22;55463;52.324;5.122;2023-01-04T01:36:18;9.28;99.53
67275;DHT22;55463;52.324;5.122;2023-01-04T01:38:44;9.31;99.61
67275;DHT22;55463;52.324;5.122;2023-01-04T01:41:30;9.32;99.64
67275;DHT22;55463;52.324;5.122;2023-01-04T01:47:02;9.39;99.72
67275;DHT22;55463;52.324;5.122;2023-01-04T01:51:51;9.46;99.71
67275;DHT22;55463;52.324;5.122;2023-01-04T01:54:22;9.48;99.71
67275;DHT22;55463;52.324;5.122;2023-01-04T01:56:51;9.53;99.74
67275;DHT22;55463;52.324;5.122;2023-01-04T01:59:18;9.60;99.76
67275;DHT22;55463;52.324;5.122;2023-01-04T02:01:45;9.65;99.69
67275;DHT22;55463;52.324;5.122;2023-01-04T02:04:11;9.69;99.77
67275;DHT22;55463;52.324;5.122;2023-01-04T02:06:46;9.72;99.80
67275;DHT22;55463;52.324;5.122;2023-01-04T02:09:16;9.73;99.74
67275;DHT22;55463;52.324;5.122;2023-01-04T02:11:41;9.80;99.76
67275;DHT22;55463;52.324;5.122;2023-01-04T02:14:08;9.84;99.75
67275;DHT22;55463;52.324;5.122;2023-01-04T02:33:54;10.10;99.60
67275;DHT22;55463;52.324;5.122;2023-01-04T02:36:39;10.11;99.67
67275;DHT22;55463;52.324;5.122;2023-01-04T02:39:24;10.12;99.74
67275;DHT22;55463;52.324;5.122;2023-01-04T02:44:34;10.11;99.85
67275;DHT22;55463;52.324;5.122;2023-01-04T02:47:22;10.15;99.88
67275;DHT22;55463;52.324;5.122;2023-01-04T02:50:30;10.18;99.91
67275;DHT22;55463;52.324;5.122;2023-01-04T02:53:04;10.18;99.87
67275;DHT22;55463;52.324;5.122;2023-01-04T02:55:48;10.22;99.85
67275;DHT22;55463;52.324;5.122;2023-01-04T03:01:38;10.22;99.89
67275;DHT22;55463;52.324;5.122;2023-01-04T03:07:53;10.32;99.83
67275;DHT22;55463;52.324;5.122;2023-01-04T03:10:35;10.32;99.88
67275;DHT22;55463;52.324;5.122;2023-01-04T03:13:26;10.36;99.82
67275;DHT22;55463;52.324;5.122;2023-01-04T03:16:04;10.39;99.81
67275;DHT22;55463;52.324;5.122;2023-01-04T03:18:37;10.41;99.79
67275;DHT22;55463;52.324;5.122;2023-01-04T03:21:07;10.42;99.82
67275;DHT22;55463;52.324;5.122;2023-01-04T03:23:35;10.44;99.87
67275;DHT22;55463;52.324;5.122;2023-01-04T03:29:11;10.46;99.99
67275;DHT22;55463;52.324;5.122;2023-01-04T03:32:10;10.46;99.97
67275;DHT22;55463;52.324;5.122;2023-01-04T03:34:54;10.48;99.99
67275;DHT22;55463;52.324;5.122;2023-01-04T03:38:09;10.48;99.96
67275;DHT22;55463;52.324;5.122;2023-01-04T03:41:21;10.50;99.99
67275;DHT22;55463;52.324;5.122;2023-01-04T03:44:17;10.49;99.96
67275;DHT22;55463;52.324;5.122;2023-01-04T03:47:07;10.53;99.99
67275;DHT22;55463;52.324;5.122;2023-01-04T03:49:59;10.50;99.99
67275;DHT22;55463;52.324;5.122;2023-01-04T03:52:27;10.57;99.99
67275;DHT22;55463;52.324;5.122;2023-01-04T03:54:55;10.55;99.98
67275;DHT22;55463;52.324;5.122;2023-01-04T03:57:22;10.57;99.99
67275;DHT22;55463;52.324;5.122;2023-01-04T03:59:52;10.60;99.99
67275;DHT22;55463;52.324;5.122;2023-01-04T04:02:23;10.63;99.99
67275;DHT22;55463;52.324;5.122;2023-01-04T04:04:48;10.64;99.99
67275;DHT22;55463;52.324;5.122;2023-01-04T04:07:32;10.67;99.99
67275;DHT22;55463;52.324;5.122;2023-01-04T04:10:16;10.66;99.99
67275;DHT22;55463;52.324;5.122;2023-01-04T04:12:42;10.66;99.99
67275;DHT22;55463;52.324;5.122;2023-01-04T04:15:07;10.69;99.99
67275;DHT22;55463;52.324;5.122;2023-01-04T04:17:33;10.69;99.99
67275;DHT22;55463;52.324;5.122;2023-01-04T04:19:58;10.73;99.95
67275;DHT22;55463;52.324;5.122;2023-01-04T04:22:24;10.73;99.92
67275;DHT22;55463;52.324;5.122;2023-01-04T04:24:49;10.74;99.86
67275;DHT22;55463;52.324;5.122;2023-01-04T04:27:14;10.79;99.85
67275;DHT22;55463;52.324;5.122;2023-01-04T04:29:40;10.79;99.83
67275;DHT22;55463;52.324;5.122;2023-01-04T04:32:05;10.84;99.65
67275;DHT22;55463;52.324;5.122;2023-01-04T04:34:30;10.87;99.59
67275;DHT22;55463;52.324;5.122;2023-01-04T04:36:56;10.87;99.53
67275;DHT22;55463;52.324;5.122;2023-01-04T04:39:21;10.91;99.56
67275;DHT22;55463;52.324;5.122;2023-01-04T04:41:46;10.93;99.51
67275;DHT22;55463;52.324;5.122;2023-01-04T04:44:14;10.94;99.44
67275;DHT22;55463;52.324;5.122;2023-01-04T04:46:41;10.99;99.41
67275;DHT22;55463;52.324;5.122;2023-01-04T04:49:07;11.00;99.36
67275;DHT22;55463;52.324;5.122;2023-01-04T04:51:33;11.01;99.31
67275;DHT22;55463;52.324;5.122;2023-01-04T04:53:59;11.04;99.26
67275;DHT22;55463;52.324;5.122;2023-01-04T04:56:24;11.08;99.24
67275;DHT22;55463;52.324;5.122;2023-01-04T04:58:50;11.06;99.27
67275;DHT22;55463;52.324;5.122;2023-01-04T05:01:15;11.10;99.31
67275;DHT22;55463;52.324;5.122;2023-01-04T05:03:41;11.11;99.35
67275;DHT22;55463;52.324;5.122;2023-01-04T05:06:06;11.11;99.33
67275;DHT22;55463;52.324;5.122;2023-01-04T05:08:32;11.12;99.43
67275;DHT22;55463;52.324;5.122;2023-01-04T05:10:58;11.15;99.44
67275;DHT22;55463;52.324;5.122;2023-01-04T05:13:23;11.18;99.42
67275;DHT22;55463;52.324;5.122;2023-01-04T05:15:50;11.19;99.36
67275;DHT22;55463;52.324;5.122;2023-01-04T05:18:19;11.24;99.41
67275;DHT22;55463;52.324;5.122;2023-01-04T05:20:46;11.22;99.36
67275;DHT22;55463;52.324;5.122;2023-01-04T05:23:13;11.24;99.37
67275;DHT22;55463;52.324;5.122;2023-01-04T05:25:39;11.28;99.35
67275;DHT22;55463;52.324;5.122;2023-01-04T05:28:05;11.25;99.36
67275;DHT22;55463;52.324;5.122;2023-01-04T05:30:30;11.25;99.41
67275;DHT22;55463;52.324;5.122;2023-01-04T05:33:16;11.27;99.49
67275;DHT22;55463;52.324;5.122;2023-01-04T05:35:41;11.25;99.48
67275;DHT22;55463;52.324;5.122;2023-01-04T05:38:06;11.21;99.47
67275;DHT22;55463;52.324;5.122;2023-01-04T05:40:32;11.18;99.44
67275;DHT22;55463;52.324;5.122;2023-01-04T05:42:57;11.12;99.53
67275;DHT22;55463;52.324;5.122;2023-01-04T05:45:23;11.08;99.58
67275;DHT22;55463;52.324;5.122;2023-01-04T05:47:50;11.08;99.66
67275;DHT22;55463;52.324;5.122;2023-01-04T05:50:16;11.08;99.69
67275;DHT22;55463;52.324;5.122;2023-01-04T05:52:42;11.07;99.71
67275;DHT22;55463;52.324;5.122;2023-01-04T05:55:07;11.07;99.65
67275;DHT22;55463;52.324;5.122;2023-01-04T05:57:33;11.04;99.74
67275;DHT22;55463;52.324;5.122;2023-01-04T05:59:59;11.04;99.73
67275;DHT22;55463;52.324;5.122;2023-01-04T06:02:27;11.07;99.76
67275;DHT22;55463;52.324;5.122;2023-01-04T06:04:53;11.07;99.75
67275;DHT22;55463;52.324;5.122;2023-01-04T06:07:19;11.10;99.84
67275;DHT22;55463;52.324;5.122;2023-01-04T06:09:44;11.12;99.86
67275;DHT22;55463;52.324;5.122;2023-01-04T06:12:10;11.12;99.92
67275;DHT22;55463;52.324;5.122;2023-01-04T06:14:36;11.14;99.90
67275;DHT22;55463;52.324;5.122;2023-01-04T06:17:02;11.15;99.98
67275;DHT22;55463;52.324;5.122;2023-01-04T06:19:27;11.19;99.91
67275;DHT22;55463;52.324;5.122;2023-01-04T06:21:52;11.22;99.85
67275;DHT22;55463;52.324;5.122;2023-01-04T06:24:18;11.24;99.72
67275;DHT22;55463;52.324;5.122;2023-01-04T06:26:43;11.27;99.72
67275;DHT22;55463;52.324;5.122;2023-01-04T06:29:09;11.31;99.56
67275;DHT22;55463;52.324;5.122;2023-01-04T06:31:34;11.31;99.54
67275;DHT22;55463;52.324;5.122;2023-01-04T06:33:59;11.36;99.45
67275;DHT22;55463;52.324;5.122;2023-01-04T06:36:25;11.38;99.31
67275;DHT22;55463;52.324;5.122;2023-01-04T06:38:51;11.42;98.98
67275;DHT22;55463;52.324;5.122;2023-01-04T06:41:16;11.47;98.80
67275;DHT22;55463;52.324;5.122;2023-01-04T06:43:42;11.51;98.71
67275;DHT22;55463;52.324;5.122;2023-01-04T06:46:07;11.55;98.71
67275;DHT22;55463;52.324;5.122;2023-01-04T06:48:33;11.52;98.77
67275;DHT22;55463;52.324;5.122;2023-01-04T06:50:58;11.55;98.73
67275;DHT22;55463;52.324;5.122;2023-01-04T06:53:23;11.56;98.65
67275;DHT22;55463;52.324;5.122;2023-01-04T06:55:49;11.56;98.49
67275;DHT22;55463;52.324;5.122;2023-01-04T06:58:14;11.61;98.44
67275;DHT22;55463;52.324;5.122;2023-01-04T07:00:40;11.62;98.48
67275;DHT22;55463;52.324;5.122;2023-01-04T07:03:05;11.63;98.41
67275;DHT22;55463;52.324;5.122;2023-01-04T07:05:31;11.63;98.44
67275;DHT22;55463;52.324;5.122;2023-01-04T07:08:00;11.65;98.49
67275;DHT22;55463;52.324;5.122;2023-01-04T07:10:26;11.63;98.55
67275;DHT22;55463;52.324;5.122;2023-01-04T07:12:52;11.61;98.60
67275;DHT22;55463;52.324;5.122;2023-01-04T07:15:17;11.62;98.69
67275;DHT22;55463;52.324;5.122;2023-01-04T07:17:43;11.61;98.85
67275;DHT22;55463;52.324;5.122;2023-01-04T07:20:10;11.61;98.98
67275;DHT22;55463;52.324;5.122;2023-01-04T07:22:36;11.58;99.12
67275;DHT22;55463;52.324;5.122;2023-01-04T07:25:01;11.55;99.22
67275;DHT22;55463;52.324;5.122;2023-01-04T07:27:26;11.55;99.37
67275;DHT22;55463;52.324;5.122;2023-01-04T07:29:52;11.53;99.41
67275;DHT22;55463;52.324;5.122;2023-01-04T07:32:17;11.53;99.50
67275;DHT22;55463;52.324;5.122;2023-01-04T07:34:43;11.52;99.54
67275;DHT22;55463;52.324;5.122;2023-01-04T07:37:08;11.51;99.70
67275;DHT22;55463;52.324;5.122;2023-01-04T07:39:34;11.52;99.72
67275;DHT22;55463;52.324;5.122;2023-01-04T07:41:59;11.49;99.83
67275;DHT22;55463;52.324;5.122;2023-01-04T07:44:25;11.51;99.90
67275;DHT22;55463;52.324;5.122;2023-01-04T07:46:52;11.49;99.96
67275;DHT22;55463;52.324;5.122;2023-01-04T07:49:17;11.46;99.99
67275;DHT22;55463;52.324;5.122;2023-01-04T07:51:44;11.46;99.99
67275;DHT22;55463;52.324;5.122;2023-01-04T07:54:10;11.46;99.99
67275;DHT22;55463;52.324;5.122;2023-01-04T07:56:36;11.46;99.99
67275;DHT22;55463;52.324;5.122;2023-01-04T07:59:04;11.43;99.99
67275;DHT22;55463;52.324;5.122;2023-01-04T08:01:30;11.46;99.99
67275;DHT22;55463;52.324;5.122;2023-01-04T08:03:56;11.49;99.99
67275;DHT22;55463;52.324;5.122;2023-01-04T08:06:21;11.45;99.99
67275;DHT22;55463;52.324;5.122;2023-01-04T08:08:47;11.47;99.99
67275;DHT22;55463;52.324;5.122;2023-01-04T08:11:16;11.47;99.99
67275;DHT22;55463;52.324;5.122;2023-01-04T08:13:42;11.47;99.99
67275;DHT22;55463;52.324;5.122;2023-01-04T08:16:30;11.47;99.99
67275;DHT22;55463;52.324;5.122;2023-01-04T08:18:57;11.51;99.99
67275;DHT22;55463;52.324;5.122;2023-01-04T08:21:24;11.53;99.99
67275;DHT22;55463;52.324;5.122;2023-01-04T08:23:51;11.53;99.99
67275;DHT22;55463;52.324;5.122;2023-01-04T08:26:16;11.52;99.99
67275;DHT22;55463;52.324;5.122;2023-01-04T08:28:42;11.53;99.99
67275;DHT22;55463;52.324;5.122;2023-01-04T08:31:14;11.52;99.99
67275;DHT22;55463;52.324;5.122;2023-01-04T08:33:40;11.53;99.99
67275;DHT22;55463;52.324;5.122;2023-01-04T08:36:17;11.55;99.99
67275;DHT22;55463;52.324;5.122;2023-01-04T08:38:47;11.55;99.99
67275;DHT22;55463;52.324;5.122;2023-01-04T08:41:13;11.56;99.99
67275;DHT22;55463;52.324;5.122;2023-01-04T08:43:39;11.56;99.99
67275;DHT22;55463;52.324;5.122;2023-01-04T08:46:05;11.59;99.99
67275;DHT22;55463;52.324;5.122;2023-01-04T08:48:32;11.61;99.99
67275;DHT22;55463;52.324;5.122;2023-01-04T08:51:06;11.63;99.99
67275;DHT22;55463;52.324;5.122;2023-01-04T08:53:32;11.62;99.99
67275;DHT22;55463;52.324;5.122;2023-01-04T08:55:58;11.70;99.99
67275;DHT22;55463;52.324;5.122;2023-01-04T08:58:28;11.74;99.99
67275;DHT22;55463;52.324;5.122;2023-01-04T09:00:59;11.76;99.99
67275;DHT22;55463;52.324;5.122;2023-01-04T09:03:25;11.79;99.99
67275;DHT22;55463;52.324;5.122;2023-01-04T09:05:50;11.81;99.99
67275;DHT22;55463;52.324;5.122;2023-01-04T09:08:16;11.86;99.99
67275;DHT22;55463;52.324;5.122;2023-01-04T09:10:41;11.87;99.99
67275;DHT22;55463;52.324;5.122;2023-01-04T09:13:06;11.89;99.99
67275;DHT22;55463;52.324;5.122;2023-01-04T09:15:32;11.91;99.99
67275;DHT22;55463;52.324;5.122;2023-01-04T09:17:58;11.93;99.99
67275;DHT22;55463;52.324;5.122;2023-01-04T09:20:24;11.97;99.79
67275;DHT22;55463;52.324;5.122;2023-01-04T09:22:49;11.95;99.73
67275;DHT22;55463;52.324;5.122;2023-01-04T09:25:15;11.95;99.60
67275;DHT22;55463;52.324;5.122;2023-01-04T09:27:40;12.00;99.45
67275;DHT22;55463;52.324;5.122;2023-01-04T09:30:06;12.00;99.40
67275;DHT22;55463;52.324;5.122;2023-01-04T09:32:31;12.01;99.39
67275;DHT22;55463;52.324;5.122;2023-01-04T09:34:57;12.01;99.34
67275;DHT22;55463;52.324;5.122;2023-01-04T09:37:22;12.01;99.17
67275;DHT22;55463;52.324;5.122;2023-01-04T09:39:48;12.05;99.09
67275;DHT22;55463;52.324;5.122;2023-01-04T09:42:23;12.05;98.95
67275;DHT22;55463;52.324;5.122;2023-01-04T09:44:53;12.10;98.82
67275;DHT22;55463;52.324;5.122;2023-01-04T09:52:59;12.18;98.47
67275;DHT22;55463;52.324;5.122;2023-01-04T09:55:41;12.20;98.39
67275;DHT22;55463;52.324;5.122;2023-01-04T09:58:27;12.18;98.48
67275;DHT22;55463;52.324;5.122;2023-01-04T10:01:10;12.20;98.51
67275;DHT22;55463;52.324;5.122;2023-01-04T10:04:28;12.20;98.50
67275;DHT22;55463;52.324;5.122;2023-01-04T10:06:27;12.17;98.50
67275;DHT22;55463;52.324;5.122;2023-01-04T10:08:59;12.20;98.45
67275;DHT22;55463;52.324;5.122;2023-01-04T10:11:35;12.21;98.49
67275;DHT22;55463;52.324;5.122;2023-01-04T10:14:14;12.22;98.49
67275;DHT22;55463;52.324;5.122;2023-01-04T10:17:00;12.21;98.36
67275;DHT22;55463;52.324;5.122;2023-01-04T10:25:00;12.32;97.93
67275;DHT22;55463;52.324;5.122;2023-01-04T10:27:52;12.34;97.89
67275;DHT22;55463;52.324;5.122;2023-01-04T10:33:12;12.36;97.74
67275;DHT22;55463;52.324;5.122;2023-01-04T10:35:38;12.41;97.80
67275;DHT22;55463;52.324;5.122;2023-01-04T10:38:13;12.38;97.72
67275;DHT22;55463;52.324;5.122;2023-01-04T10:40:39;12.39;97.71
67275;DHT22;55463;52.324;5.122;2023-01-04T10:48:59;12.38;98.15
67275;DHT22;55463;52.324;5.122;2023-01-04T10:51:48;12.34;98.35
67275;DHT22;55463;52.324;5.122;2023-01-04T10:54:30;12.31;98.53
67275;DHT22;55463;52.324;5.122;2023-01-04T10:57:08;12.28;98.58
67275;DHT22;55463;52.324;5.122;2023-01-04T11:05:15;12.28;98.50
67275;DHT22;55463;52.324;5.122;2023-01-04T11:08:04;12.25;98.60
67275;DHT22;55463;52.324;5.122;2023-01-04T11:10:56;12.28;98.52
67275;DHT22;55463;52.324;5.122;2023-01-04T11:13:23;12.29;98.39
67275;DHT22;55463;52.324;5.122;2023-01-04T11:15:49;12.31;98.26
67275;DHT22;55463;52.324;5.122;2023-01-04T11:18:16;12.34;98.11
67275;DHT22;55463;52.324;5.122;2023-01-04T11:20:41;12.41;97.95
67275;DHT22;55463;52.324;5.122;2023-01-04T11:23:18;12.41;97.91
67275;DHT22;55463;52.324;5.122;2023-01-04T11:25:51;12.41;97.98
67275;DHT22;55463;52.324;5.122;2023-01-04T11:28:25;12.43;97.68
67275;DHT22;55463;52.324;5.122;2023-01-04T11:33:22;12.46;97.69
67275;DHT22;55463;52.324;5.122;2023-01-04T11:35:50;12.45;97.63
67275;DHT22;55463;52.324;5.122;2023-01-04T11:38:17;12.43;97.76
67275;DHT22;55463;52.324;5.122;2023-01-04T11:41:02;12.43;97.49
67275;DHT22;55463;52.324;5.122;2023-01-04T11:43:35;12.41;97.44
67275;DHT22;55463;52.324;5.122;2023-01-04T11:48:33;12.42;97.33
67275;DHT22;55463;52.324;5.122;2023-01-04T11:50:59;12.48;97.03
67275;DHT22;55463;52.324;5.122;2023-01-04T11:56:16;12.56;96.35
67275;DHT22;55463;52.324;5.122;2023-01-04T11:58:44;12.56;96.27
67275;DHT22;55463;52.324;5.122;2023-01-04T12:01:22;12.55;96.22
67275;DHT22;55463;52.324;5.122;2023-01-04T12:03:48;12.59;96.22
67275;DHT22;55463;52.324;5.122;2023-01-04T12:06:18;12.60;95.91
67275;DHT22;55463;52.324;5.122;2023-01-04T12:08:46;12.62;95.56
67275;DHT22;55463;52.324;5.122;2023-01-04T12:11:30;12.64;95.45
67275;DHT22;55463;52.324;5.122;2023-01-04T12:13:57;12.67;95.58
67275;DHT22;55463;52.324;5.122;2023-01-04T12:16:43;12.67;95.70
67275;DHT22;55463;52.324;5.122;2023-01-04T12:19:14;12.70;95.75
67275;DHT22;55463;52.324;5.122;2023-01-04T12:21:43;12.70;95.46
67275;DHT22;55463;52.324;5.122;2023-01-04T12:24:18;12.72;95.50
67275;DHT22;55463;52.324;5.122;2023-01-04T12:26:44;12.70;95.49
67275;DHT22;55463;52.324;5.122;2023-01-04T12:31:53;12.75;95.15
67275;DHT22;55463;52.324;5.122;2023-01-04T12:34:43;12.75;95.10
67275;DHT22;55463;52.324;5.122;2023-01-04T12:37:10;12.79;94.67
67275;DHT22;55463;52.324;5.122;2023-01-04T12:39:39;12.80;94.56
67275;DHT22;55463;52.324;5.122;2023-01-04T12:42:15;12.79;94.52
67275;DHT22;55463;52.324;5.122;2023-01-04T13:05:57;12.83;93.66
67275;DHT22;55463;52.324;5.122;2023-01-04T13:08:24;12.81;93.82
67275;DHT22;55463;52.324;5.122;2023-01-04T13:10:51;12.81;93.75
67275;DHT22;55463;52.324;5.122;2023-01-04T13:21:12;12.86;93.31
67275;DHT22;55463;52.324;5.122;2023-01-04T13:23:44;12.86;93.30
67275;DHT22;55463;52.324;5.122;2023-01-04T13:32:00;12.80;93.46
67275;DHT22;55463;52.324;5.122;2023-01-04T13:34:39;12.79;93.59
67275;DHT22;55463;52.324;5.122;2023-01-04T13:42:33;12.79;93.55
67275;DHT22;55463;52.324;5.122;2023-01-04T13:45:14;12.79;93.58
67275;DHT22;55463;52.324;5.122;2023-01-04T13:47:46;12.80;93.45
67275;DHT22;55463;52.324;5.122;2023-01-04T13:50:42;12.77;93.67
67275;DHT22;55463;52.324;5.122;2023-01-04T13:53:22;12.76;93.61
67275;DHT22;55463;52.324;5.122;2023-01-04T13:55:56;12.75;93.62
67275;DHT22;55463;52.324;5.122;2023-01-04T13:58:32;12.75;93.59
67275;DHT22;55463;52.324;5.122;2023-01-04T14:03:54;12.70;93.58
67275;DHT22;55463;52.324;5.122;2023-01-04T14:06:27;12.70;93.49
67275;DHT22;55463;52.324;5.122;2023-01-04T14:09:12;12.67;93.43
67275;DHT22;55463;52.324;5.122;2023-01-04T14:14:50;12.69;93.20
67275;DHT22;55463;52.324;5.122;2023-01-04T14:17:21;12.66;93.25
67275;DHT22;55463;52.324;5.122;2023-01-04T14:19:50;12.66;93.27
67275;DHT22;55463;52.324;5.122;2023-01-04T14:22:26;12.63;93.13
67275;DHT22;55463;52.324;5.122;2023-01-04T14:24:54;12.60;93.02
67275;DHT22;55463;52.324;5.122;2023-01-04T14:27:40;12.60;92.89
67275;DHT22;55463;52.324;5.122;2023-01-04T14:33:02;12.57;92.90
67275;DHT22;55463;52.324;5.122;2023-01-04T14:35:32;12.56;92.76
67275;DHT22;55463;52.324;5.122;2023-01-04T14:38:02;12.57;92.76
67275;DHT22;55463;52.324;5.122;2023-01-04T14:40:29;12.57;92.57
67275;DHT22;55463;52.324;5.122;2023-01-04T14:42:57;12.57;92.35
67275;DHT22;55463;52.324;5.122;2023-01-04T14:45:23;12.59;92.36
67275;DHT22;55463;52.324;5.122;2023-01-04T14:47:49;12.55;92.24
67275;DHT22;55463;52.324;5.122;2023-01-04T14:50:15;12.57;91.96
67275;DHT22;55463;52.324;5.122;2023-01-04T14:52:51;12.60;91.84
67275;DHT22;55463;52.324;5.122;2023-01-04T14:55:17;12.59;91.79
67275;DHT22;55463;52.324;5.122;2023-01-04T14:57:42;12.59;91.68
67275;DHT22;55463;52.324;5.122;2023-01-04T15:00:14;12.62;91.40
67275;DHT22;55463;52.324;5.122;2023-01-04T15:02:40;12.64;91.31
67275;DHT22;55463;52.324;5.122;2023-01-04T15:05:05;12.63;91.25
67275;DHT22;55463;52.324;5.122;2023-01-04T15:07:36;12.66;91.27
67275;DHT22;55463;52.324;5.122;2023-01-04T15:10:27;12.66;91.19
67275;DHT22;55463;52.324;5.122;2023-01-04T15:12:51;12.69;90.98
67275;DHT22;55463;52.324;5.122;2023-01-04T15:15:17;12.67;90.80
67275;DHT22;55463;52.324;5.122;2023-01-04T15:17:43;12.66;90.86
67275;DHT22;55463;52.324;5.122;2023-01-04T15:20:09;12.73;90.89
67275;DHT22;55463;52.324;5.122;2023-01-04T15:22:34;12.72;90.94
67275;DHT22;55463;52.324;5.122;2023-01-04T15:24:59;12.75;90.97
67275;DHT22;55463;52.324;5.122;2023-01-04T15:27:25;12.73;90.92
67275;DHT22;55463;52.324;5.122;2023-01-04T15:29:50;12.73;90.91
67275;DHT22;55463;52.324;5.122;2023-01-04T15:32:16;12.75;90.93
67275;DHT22;55463;52.324;5.122;2023-01-04T15:34:41;12.75;90.83
67275;DHT22;55463;52.324;5.122;2023-01-04T15:37:07;12.72;90.73
67275;DHT22;55463;52.324;5.122;2023-01-04T15:39:32;12.75;90.78
67275;DHT22;55463;52.324;5.122;2023-01-04T15:41:57;12.75;90.74
67275;DHT22;55463;52.324;5.122;2023-01-04T15:44:42;12.72;90.72
67275;DHT22;55463;52.324;5.122;2023-01-04T15:47:08;12.72;90.72
67275;DHT22;55463;52.324;5.122;2023-01-04T15:49:33;12.70;90.85
67275;DHT22;55463;52.324;5.122;2023-01-04T15:52:00;12.66;90.77
67275;DHT22;55463;52.324;5.122;2023-01-04T15:54:28;12.66;90.97
67275;DHT22;55463;52.324;5.122;2023-01-04T15:56:54;12.62;91.04
67275;DHT22;55463;52.324;5.122;2023-01-04T15:59:20;12.63;90.82
67275;DHT22;55463;52.324;5.122;2023-01-04T16:01:45;12.62;90.79
67275;DHT22;55463;52.324;5.122;2023-01-04T16:04:11;12.60;91.12
67275;DHT22;55463;52.324;5.122;2023-01-04T16:06:36;12.60;91.10
67275;DHT22;55463;52.324;5.122;2023-01-04T16:09:02;12.59;90.87
67275;DHT22;55463;52.324;5.122;2023-01-04T16:11:28;12.57;90.88
67275;DHT22;55463;52.324;5.122;2023-01-04T16:13:54;12.60;90.63
67275;DHT22;55463;52.324;5.122;2023-01-04T16:16:22;12.59;90.49
67275;DHT22;55463;52.324;5.122;2023-01-04T16:18:52;12.59;90.33
67275;DHT22;55463;52.324;5.122;2023-01-04T16:21:23;12.59;90.05
67275;DHT22;55463;52.324;5.122;2023-01-04T16:23:50;12.60;90.14
67275;DHT22;55463;52.324;5.122;2023-01-04T16:26:17;12.59;90.11
67275;DHT22;55463;52.324;5.122;2023-01-04T16:28:42;12.57;90.19
67275;DHT22;55463;52.324;5.122;2023-01-04T16:31:08;12.56;90.16
67275;DHT22;55463;52.324;5.122;2023-01-04T16:33:34;12.56;90.04
67275;DHT22;55463;52.324;5.122;2023-01-04T16:36:06;12.56;90.15
67275;DHT22;55463;52.324;5.122;2023-01-04T16:38:36;12.55;90.23
67275;DHT22;55463;52.324;5.122;2023-01-04T16:41:02;12.53;90.25
67275;DHT22;55463;52.324;5.122;2023-01-04T16:43:28;12.56;90.12
67275;DHT22;55463;52.324;5.122;2023-01-04T16:48:43;12.55;89.95
67275;DHT22;55463;52.324;5.122;2023-01-04T16:51:08;12.57;89.81
67275;DHT22;55463;52.324;5.122;2023-01-04T16:53:35;12.56;89.72
67275;DHT22;55463;52.324;5.122;2023-01-04T16:56:09;12.53;89.70
67275;DHT22;55463;52.324;5.122;2023-01-04T16:58:36;12.56;89.70
67275;DHT22;55463;52.324;5.122;2023-01-04T17:01:13;12.56;89.75
67275;DHT22;55463;52.324;5.122;2023-01-04T17:03:40;12.53;89.59
67275;DHT22;55463;52.324;5.122;2023-01-04T17:06:09;12.50;89.68
67275;DHT22;55463;52.324;5.122;2023-01-04T17:08:35;12.49;89.28
67275;DHT22;55463;52.324;5.122;2023-01-04T17:11:06;12.48;89.23
67275;DHT22;55463;52.324;5.122;2023-01-04T17:13:32;12.49;88.76
67275;DHT22;55463;52.324;5.122;2023-01-04T17:15:59;12.49;88.64
67275;DHT22;55463;52.324;5.122;2023-01-04T17:18:25;12.50;87.23
67275;DHT22;55463;52.324;5.122;2023-01-04T17:20:58;12.52;87.50
67275;DHT22;55463;52.324;5.122;2023-01-04T17:23:25;12.53;87.24
67275;DHT22;55463;52.324;5.122;2023-01-04T17:25:52;12.56;86.29
67275;DHT22;55463;52.324;5.122;2023-01-04T17:28:18;12.56;86.75
67275;DHT22;55463;52.324;5.122;2023-01-04T17:30:44;12.63;85.59
67275;DHT22;55463;52.324;5.122;2023-01-04T17:33:09;12.62;85.54
67275;DHT22;55463;52.324;5.122;2023-01-04T17:35:36;12.64;85.46
67275;DHT22;55463;52.324;5.122;2023-01-04T17:38:02;12.67;85.62
67275;DHT22;55463;52.324;5.122;2023-01-04T17:40:27;12.69;85.39
67275;DHT22;55463;52.324;5.122;2023-01-04T17:42:52;12.76;85.30
67275;DHT22;55463;52.324;5.122;2023-01-04T17:45:18;12.73;85.82
67275;DHT22;55463;52.324;5.122;2023-01-04T17:47:43;12.75;86.08
67275;DHT22;55463;52.324;5.122;2023-01-04T17:50:09;12.70;86.14